Time;durP1;ratioP1;P1;durP2;ratioP2;P2;SDS_P1;SDS_P2;PMS_P1;PMS_P2;Temp;Humidity;BMP_temperature;BMP_pressure;BME280_temperature;BME280_humidity;BME280_pressure;Samples;Min_cycle;Max_cycle;Signal;HPM_P1;HPM_P2
2023/07/22 00:00:22;;;;;;;;;;;18.10;99.90;;;;;;4591824;19;19930;-29
2023/07/22 00:02:13;;;;;;;;;;;18.10;99.90;;;;;;4591340;19;19914;-25
2023/07/22 00:03:44;;;;;;;;;;;18.00;99.90;;;;;;4591925;19;20309;-24
2023/07/22 00:05:15;;;;;;;;;;;18.00;99.90;;;;;;4591193;19;19982;-23
2023/07/22 00:06:46;;;;;;;;;;;18.00;99.90;;;;;;4590837;19;19918;-27
2023/07/22 00:08:17;;;;;;;;;;;18.00;99.90;;;;;;4593356;19;19918;-25
2023/07/22 00:09:49;;;;;;;;;;;18.00;99.90;;;;;;4590610;19;19923;-24
2023/07/22 00:11:20;;;;;;;;;;;18.00;99.90;;;;;;4591209;19;19970;-25
2023/07/22 00:12:51;;;;;;;;;;;18.00;99.90;;;;;;4591785;19;19910;-26
2023/07/22 00:14:22;;;;;;;;;;;18.00;99.90;;;;;;4591748;19;19937;-29
2023/07/22 00:15:54;;;;;;;;;;;17.90;99.90;;;;;;4590799;19;19919;-26
2023/07/22 00:17:25;;;;;;;;;;;18.00;99.90;;;;;;4591189;19;19941;-25
2023/07/22 00:18:56;;;;;;;;;;;17.90;99.90;;;;;;4591596;19;19919;-27
2023/07/22 00:20:27;;;;;;;;;;;17.90;99.90;;;;;;4591815;19;19915;-25
2023/07/22 00:21:58;;;;;;;;;;;17.90;99.90;;;;;;4590032;19;19939;-25
2023/07/22 00:23:30;;;;;;;;;;;17.90;99.90;;;;;;4591091;19;20325;-24
2023/07/22 00:25:01;;;;;;;;;;;17.80;99.90;;;;;;4591548;19;19942;-24
2023/07/22 00:26:33;;;;;;;;;;;17.80;99.90;;;;;;4591208;19;20260;-27
2023/07/22 00:28:23;;;;;;;;;;;17.80;99.90;;;;;;4591038;19;20373;-25
2023/07/22 00:29:54;;;;;;;;;;;17.80;99.90;;;;;;4589818;19;20234;-24
2023/07/22 00:31:24;;;;;;;;;;;17.80;99.90;;;;;;4591392;19;19993;-25
2023/07/22 00:32:56;;;;;;;;;;;17.80;99.90;;;;;;4591730;19;19933;-30
2023/07/22 00:34:27;;;;;;;;;;;17.70;99.90;;;;;;4590853;19;19919;-27
2023/07/22 00:35:58;;;;;;;;;;;17.70;99.90;;;;;;4591193;19;19918;-25
2023/07/22 00:37:29;;;;;;;;;;;17.70;99.90;;;;;;4592297;19;19919;-24
2023/07/22 00:39:01;;;;;;;;;;;17.60;99.90;;;;;;4590521;19;19937;-25
2023/07/22 00:40:32;;;;;;;;;;;17.60;99.90;;;;;;4590830;19;19910;-28
2023/07/22 00:42:03;;;;;;;;;;;17.60;99.90;;;;;;4590974;19;19914;-29
2023/07/22 00:43:34;;;;;;;;;;;17.60;99.90;;;;;;4591288;19;19922;-25
2023/07/22 00:45:06;;;;;;;;;;;17.60;99.90;;;;;;4590434;19;19919;-23
2023/07/22 00:46:37;;;;;;;;;;;17.60;99.90;;;;;;4590903;19;19926;-24
2023/07/22 00:48:08;;;;;;;;;;;17.60;99.90;;;;;;4591877;19;19918;-24
2023/07/22 00:49:39;;;;;;;;;;;17.50;99.90;;;;;;4594854;19;19919;-26
2023/07/22 00:51:10;;;;;;;;;;;17.50;99.90;;;;;;4595233;19;19915;-28
2023/07/22 00:52:41;;;;;;;;;;;17.50;99.90;;;;;;4595589;19;19966;-27
2023/07/22 00:54:12;;;;;;;;;;;17.50;99.90;;;;;;4595919;19;19922;-25
2023/07/22 00:55:43;;;;;;;;;;;17.50;99.90;;;;;;4595218;19;19919;-28
2023/07/22 00:57:14;;;;;;;;;;;17.50;99.90;;;;;;4594056;19;19936;-25
2023/07/22 00:58:46;;;;;;;;;;;17.40;99.90;;;;;;4594015;19;19927;-24
2023/07/22 01:00:17;;;;;;;;;;;17.50;99.90;;;;;;4595413;19;19919;-24
2023/07/22 01:01:48;;;;;;;;;;;17.40;99.90;;;;;;4594838;19;19973;-25
2023/07/22 01:03:19;;;;;;;;;;;17.40;99.90;;;;;;4595309;19;19921;-25
2023/07/22 01:04:51;;;;;;;;;;;17.40;99.90;;;;;;4593803;19;19948;-24
2023/07/22 01:06:24;;;;;;;;;;;17.40;99.90;;;;;;4595046;19;20327;-24
2023/07/22 01:07:55;;;;;;;;;;;17.40;99.90;;;;;;4594342;19;19918;-25
2023/07/22 01:09:30;;;;;;;;;;;17.40;99.90;;;;;;4594118;19;19918;-25
2023/07/22 01:11:01;;;;;;;;;;;17.30;99.90;;;;;;4593571;19;19942;-25
2023/07/22 01:12:33;;;;;;;;;;;17.40;99.90;;;;;;4595191;19;19907;-24
2023/07/22 01:14:04;;;;;;;;;;;17.30;99.90;;;;;;4594353;19;19930;-29
2023/07/22 01:15:35;;;;;;;;;;;17.30;99.90;;;;;;4593891;19;20250;-23
2023/07/22 01:17:07;;;;;;;;;;;17.30;99.90;;;;;;4593974;19;19992;-24
2023/07/22 01:18:38;;;;;;;;;;;17.30;99.90;;;;;;4594411;19;19929;-24
2023/07/22 01:20:09;;;;;;;;;;;17.30;99.90;;;;;;4594417;19;19907;-30
2023/07/22 01:21:40;;;;;;;;;;;17.30;99.90;;;;;;4595194;19;19918;-31
2023/07/22 01:23:11;;;;;;;;;;;17.30;99.90;;;;;;4593947;19;20350;-24
2023/07/22 01:24:44;;;;;;;;;;;17.40;99.90;;;;;;4593261;19;19942;-25
2023/07/22 01:26:15;;;;;;;;;;;17.40;99.90;;;;;;4594116;19;19911;-24
2023/07/22 01:27:46;;;;;;;;;;;17.30;99.90;;;;;;4594807;19;19922;-23
2023/07/22 01:29:17;;;;;;;;;;;17.30;99.90;;;;;;4592819;19;20320;-24
2023/07/22 01:30:49;;;;;;;;;;;17.30;99.90;;;;;;4593283;19;19922;-24
2023/07/22 01:32:20;;;;;;;;;;;17.30;99.90;;;;;;4593918;19;20345;-28
2023/07/22 01:33:52;;;;;;;;;;;17.30;99.90;;;;;;4593545;19;19911;-27
2023/07/22 01:35:23;;;;;;;;;;;17.30;99.90;;;;;;4594376;19;19919;-26
2023/07/22 01:36:54;;;;;;;;;;;17.30;99.90;;;;;;4594389;19;19927;-24
2023/07/22 01:38:26;;;;;;;;;;;17.30;99.90;;;;;;4597144;19;20320;-24
2023/07/22 01:39:57;;;;;;;;;;;17.30;99.90;;;;;;4594586;19;19937;-25
2023/07/22 01:41:28;;;;;;;;;;;17.20;99.90;;;;;;4593980;19;19919;-24
2023/07/22 01:42:59;;;;;;;;;;;17.30;99.90;;;;;;4594334;19;20328;-30
2023/07/22 01:44:31;;;;;;;;;;;17.30;99.90;;;;;;4594269;19;19926;-24
2023/07/22 01:46:02;;;;;;;;;;;17.30;99.90;;;;;;4594146;19;19911;-25
2023/07/22 01:47:34;;;;;;;;;;;17.30;99.90;;;;;;4594161;19;20232;-24
2023/07/22 01:49:08;;;;;;;;;;;17.20;99.90;;;;;;4593861;19;19930;-24
2023/07/22 01:50:39;;;;;;;;;;;17.30;99.90;;;;;;4594115;19;19931;-25
2023/07/22 01:52:12;;;;;;;;;;;17.30;99.90;;;;;;4594263;19;20333;-24
2023/07/22 01:53:43;;;;;;;;;;;17.30;99.90;;;;;;4593962;19;19922;-25
2023/07/22 01:55:14;;;;;;;;;;;17.30;99.90;;;;;;4594265;19;19918;-27
2023/07/22 01:56:48;;;;;;;;;;;17.30;99.90;;;;;;4594661;19;20342;-28
2023/07/22 01:58:20;;;;;;;;;;;17.30;99.90;;;;;;4594480;19;20240;-25
2023/07/22 01:59:53;;;;;;;;;;;17.20;99.90;;;;;;4591031;19;19927;-27
2023/07/22 02:01:24;;;;;;;;;;;17.20;99.90;;;;;;4592684;19;19915;-25
2023/07/22 02:02:56;;;;;;;;;;;17.20;99.90;;;;;;4593509;19;19914;-25
2023/07/22 02:04:28;;;;;;;;;;;17.20;99.90;;;;;;4594497;19;19914;-24
2023/07/22 02:06:03;;;;;;;;;;;17.20;99.90;;;;;;4593767;19;19922;-24
2023/07/22 02:07:34;;;;;;;;;;;17.20;99.90;;;;;;4592979;19;19915;-25
2023/07/22 02:09:08;;;;;;;;;;;17.20;99.90;;;;;;4593047;19;19923;-24
2023/07/22 02:10:39;;;;;;;;;;;17.20;99.90;;;;;;4593574;19;19915;-24
2023/07/22 02:12:10;;;;;;;;;;;17.20;99.90;;;;;;4593745;19;19942;-26
2023/07/22 02:13:41;;;;;;;;;;;17.20;99.90;;;;;;4593644;19;20002;-24
2023/07/22 02:15:12;;;;;;;;;;;17.20;99.90;;;;;;4594398;19;20349;-31
2023/07/22 02:16:43;;;;;;;;;;;17.20;99.90;;;;;;4593587;19;19919;-24
2023/07/22 02:18:14;;;;;;;;;;;17.10;99.90;;;;;;4593762;19;19919;-28
2023/07/22 02:19:46;;;;;;;;;;;17.20;99.90;;;;;;4592581;19;20340;-28
2023/07/22 02:21:17;;;;;;;;;;;17.20;99.90;;;;;;4593063;19;19910;-28
2023/07/22 02:22:48;;;;;;;;;;;17.20;99.90;;;;;;4593307;19;19926;-28
2023/07/22 02:24:19;;;;;;;;;;;17.20;99.90;;;;;;4593430;19;19970;-28
2023/07/22 02:25:50;;;;;;;;;;;17.10;99.90;;;;;;4593925;19;20248;-28
2023/07/22 02:27:21;;;;;;;;;;;17.10;99.90;;;;;;4593586;19;19915;-28
2023/07/22 02:28:52;;;;;;;;;;;17.10;99.90;;;;;;4593072;19;19915;-31
2023/07/22 02:30:24;;;;;;;;;;;17.10;99.90;;;;;;4591862;19;19979;-25
2023/07/22 02:31:55;;;;;;;;;;;17.10;99.90;;;;;;4592899;19;19921;-28
2023/07/22 02:33:26;;;;;;;;;;;17.10;99.90;;;;;;4593025;19;20314;-30
2023/07/22 02:34:57;;;;;;;;;;;17.10;99.90;;;;;;4593472;19;19923;-28
2023/07/22 02:36:28;;;;;;;;;;;17.10;99.90;;;;;;4593172;19;19926;-28
2023/07/22 02:37:59;;;;;;;;;;;17.00;99.90;;;;;;4595852;19;19915;-23
2023/07/22 02:39:30;;;;;;;;;;;17.00;99.90;;;;;;4593042;19;19929;-24
2023/07/22 02:41:02;;;;;;;;;;;17.00;99.90;;;;;;4593267;19;19923;-25
2023/07/22 02:42:34;;;;;;;;;;;17.00;99.90;;;;;;4593497;19;19922;-25
2023/07/22 02:44:06;;;;;;;;;;;17.00;99.90;;;;;;4593630;19;19936;-24
2023/07/22 02:45:37;;;;;;;;;;;17.00;99.90;;;;;;4591771;19;19922;-25
2023/07/22 02:47:09;;;;;;;;;;;17.00;99.90;;;;;;4593028;19;19966;-25
2023/07/22 02:48:40;;;;;;;;;;;17.00;99.90;;;;;;4593106;19;19911;-24
2023/07/22 02:50:12;;;;;;;;;;;17.00;99.90;;;;;;4591696;19;19923;-25
2023/07/22 02:51:44;;;;;;;;;;;17.00;99.90;;;;;;4593181;19;19918;-28
2023/07/22 02:53:15;;;;;;;;;;;17.00;99.90;;;;;;4592873;19;19924;-25
2023/07/22 02:55:03;;;;;;;;;;;17.00;99.90;;;;;;4592990;19;19930;-24
2023/07/22 02:56:34;;;;;;;;;;;17.00;99.90;;;;;;4593021;19;19922;-24
2023/07/22 02:58:05;;;;;;;;;;;17.00;99.90;;;;;;4591709;19;19971;-24
2023/07/22 02:59:37;;;;;;;;;;;17.00;99.90;;;;;;4592613;19;20333;-24
2023/07/22 03:01:08;;;;;;;;;;;17.00;99.90;;;;;;4593137;19;19911;-23
2023/07/22 03:02:41;;;;;;;;;;;17.10;99.90;;;;;;4592498;19;19915;-25
2023/07/22 03:04:14;;;;;;;;;;;17.00;99.90;;;;;;4592625;19;19907;-25
2023/07/22 03:05:45;;;;;;;;;;;17.00;99.90;;;;;;4593111;19;19921;-25
2023/07/22 03:07:16;;;;;;;;;;;17.00;99.90;;;;;;4592394;19;19922;-28
2023/07/22 03:08:48;;;;;;;;;;;17.00;99.90;;;;;;4592302;19;20332;-29
2023/07/22 03:10:19;;;;;;;;;;;17.00;99.90;;;;;;4592531;19;19923;-24
2023/07/22 03:11:50;;;;;;;;;;;17.00;99.90;;;;;;4590181;19;19914;-28
2023/07/22 03:13:21;;;;;;;;;;;17.00;99.90;;;;;;4591991;19;19960;-24
2023/07/22 03:14:52;;;;;;;;;;;17.00;99.90;;;;;;4592273;19;19914;-26
2023/07/22 03:16:24;;;;;;;;;;;17.00;99.90;;;;;;4592759;19;19914;-26
2023/07/22 03:17:56;;;;;;;;;;;17.00;99.90;;;;;;4592825;19;19949;-30
2023/07/22 03:19:27;;;;;;;;;;;17.00;99.90;;;;;;4592830;19;19910;-26
2023/07/22 03:20:57;;;;;;;;;;;17.00;99.90;;;;;;4592202;19;19915;-26
2023/07/22 03:22:31;;;;;;;;;;;17.00;99.90;;;;;;4592721;19;19918;-28
2023/07/22 03:24:02;;;;;;;;;;;17.00;99.90;;;;;;4592675;19;19926;-26
2023/07/22 03:25:35;;;;;;;;;;;17.00;99.90;;;;;;4591896;19;19914;-27
2023/07/22 03:27:06;;;;;;;;;;;17.00;99.90;;;;;;4592341;19;19927;-26
2023/07/22 03:28:37;;;;;;;;;;;17.00;99.90;;;;;;4592355;19;19930;-26
2023/07/22 03:30:14;;;;;;;;;;;17.00;99.90;;;;;;4590364;19;20282;-29
2023/07/22 03:31:46;;;;;;;;;;;17.00;99.90;;;;;;4591630;19;19914;-27
2023/07/22 03:33:17;;;;;;;;;;;17.00;99.90;;;;;;4592124;19;20328;-29
2023/07/22 03:34:47;;;;;;;;;;;17.00;99.90;;;;;;4591950;19;19939;-27
2023/07/22 03:36:19;;;;;;;;;;;17.00;99.90;;;;;;4592424;19;19922;-24
2023/07/22 03:37:50;;;;;;;;;;;17.00;99.90;;;;;;4592590;19;19936;-25
2023/07/22 03:39:21;;;;;;;;;;;17.00;99.90;;;;;;4591246;19;19911;-29
2023/07/22 03:40:53;;;;;;;;;;;17.00;99.90;;;;;;4590781;19;19922;-30
2023/07/22 03:42:25;;;;;;;;;;;17.00;99.90;;;;;;4591503;19;19938;-28
2023/07/22 03:43:56;;;;;;;;;;;17.00;99.90;;;;;;4591774;19;19944;-25
2023/07/22 03:45:27;;;;;;;;;;;17.00;99.90;;;;;;4592022;19;19945;-26
2023/07/22 03:46:59;;;;;;;;;;;17.00;99.90;;;;;;4591866;19;19918;-25
2023/07/22 03:48:30;;;;;;;;;;;17.00;99.90;;;;;;4591465;19;20310;-25
2023/07/22 03:50:01;;;;;;;;;;;17.00;99.90;;;;;;4590552;19;20365;-24
2023/07/22 03:51:36;;;;;;;;;;;17.00;99.90;;;;;;4590692;19;19934;-27
2023/07/22 03:53:07;;;;;;;;;;;17.00;99.90;;;;;;4590489;19;20365;-25
2023/07/22 03:54:38;;;;;;;;;;;17.00;99.90;;;;;;4591096;19;19911;-22
2023/07/22 03:56:09;;;;;;;;;;;17.00;99.90;;;;;;4591881;19;19915;-26
2023/07/22 03:57:40;;;;;;;;;;;17.00;99.90;;;;;;4591911;19;19995;-25
2023/07/22 03:59:12;;;;;;;;;;;17.00;99.90;;;;;;4590307;19;20273;-25
2023/07/22 04:00:48;;;;;;;;;;;17.00;99.90;;;;;;4591003;19;19915;-24
2023/07/22 04:02:21;;;;;;;;;;;17.00;99.90;;;;;;4591224;19;19918;-24
2023/07/22 04:03:52;;;;;;;;;;;17.00;99.90;;;;;;4590534;19;19918;-25
2023/07/22 04:05:25;;;;;;;;;;;17.00;99.90;;;;;;4591215;19;19974;-24
2023/07/22 04:06:56;;;;;;;;;;;17.10;99.90;;;;;;4590008;19;20265;-27
2023/07/22 04:08:27;;;;;;;;;;;17.00;99.90;;;;;;4591062;19;19919;-22
2023/07/22 04:09:58;;;;;;;;;;;17.00;99.90;;;;;;4589736;19;20347;-25
2023/07/22 04:11:29;;;;;;;;;;;17.00;99.90;;;;;;4590522;19;19988;-29
2023/07/22 04:13:00;;;;;;;;;;;17.00;99.90;;;;;;4591298;19;19930;-23
2023/07/22 04:14:31;;;;;;;;;;;17.00;99.90;;;;;;4591134;19;19985;-26
2023/07/22 04:16:02;;;;;;;;;;;17.00;99.90;;;;;;4588972;19;19974;-22
2023/07/22 04:17:33;;;;;;;;;;;17.00;99.90;;;;;;4590169;19;19945;-27
2023/07/22 04:19:04;;;;;;;;;;;17.00;99.90;;;;;;4589923;19;20320;-25
2023/07/22 04:20:35;;;;;;;;;;;17.00;99.90;;;;;;4590849;19;19911;-23
2023/07/22 04:22:07;;;;;;;;;;;17.00;99.90;;;;;;4591192;19;19918;-26
2023/07/22 04:23:37;;;;;;;;;;;17.00;99.90;;;;;;4588645;19;20246;-25
2023/07/22 04:25:08;;;;;;;;;;;17.00;99.90;;;;;;4590077;19;19930;-27
2023/07/22 04:26:41;;;;;;;;;;;17.00;99.90;;;;;;4590873;19;19929;-23
2023/07/22 04:28:12;;;;;;;;;;;17.00;99.90;;;;;;4591221;19;19910;-23
2023/07/22 04:29:43;;;;;;;;;;;17.10;99.90;;;;;;4590280;19;19952;-24
2023/07/22 04:31:14;;;;;;;;;;;17.10;99.90;;;;;;4590870;19;19926;-24
2023/07/22 04:32:45;;;;;;;;;;;17.10;99.90;;;;;;4589745;19;20253;-28
2023/07/22 04:34:16;;;;;;;;;;;17.10;99.90;;;;;;4590017;19;20360;-24
2023/07/22 04:35:47;;;;;;;;;;;17.10;99.90;;;;;;4591340;19;20255;-25
2023/07/22 04:37:18;;;;;;;;;;;17.20;99.90;;;;;;4591597;19;19914;-24
2023/07/22 04:38:49;;;;;;;;;;;17.10;99.90;;;;;;4591282;19;20339;-24
2023/07/22 04:40:20;;;;;;;;;;;17.10;99.90;;;;;;4590672;19;20332;-26
2023/07/22 04:41:51;;;;;;;;;;;17.20;99.90;;;;;;4592780;19;20013;-30
2023/07/22 04:43:24;;;;;;;;;;;17.20;99.90;;;;;;4591394;19;19919;-26
2023/07/22 04:44:55;;;;;;;;;;;17.10;99.90;;;;;;4590859;19;19949;-28
2023/07/22 04:46:26;;;;;;;;;;;17.20;99.90;;;;;;4590740;19;20373;-25
2023/07/22 04:47:57;;;;;;;;;;;17.30;99.90;;;;;;4590543;19;19914;-25
2023/07/22 04:49:29;;;;;;;;;;;17.70;99.90;;;;;;4590583;19;19911;-26
2023/07/22 04:51:00;;;;;;;;;;;18.00;99.90;;;;;;4589964;19;19948;-25
2023/07/22 04:52:32;;;;;;;;;;;18.30;99.90;;;;;;4589574;19;19919;-26
2023/07/22 04:54:03;;;;;;;;;;;18.60;99.90;;;;;;4590415;19;20325;-27
2023/07/22 04:55:34;;;;;;;;;;;18.80;99.90;;;;;;4590676;19;19914;-28
2023/07/22 04:57:05;;;;;;;;;;;19.00;99.90;;;;;;4588943;19;19914;-25
2023/07/22 04:58:37;;;;;;;;;;;19.20;99.90;;;;;;4590142;19;19918;-25
